Time;durP1;ratioP1;P1;durP2;ratioP2;P2;SDS_P1;SDS_P2;PMS_P1;PMS_P2;Temp;Humidity;BMP_temperature;BMP_pressure;BME280_temperature;BME280_humidity;BME280_pressure;Samples;Min_cycle;Max_cycle;Signal;HPM_P1;HPM_P2
2022/05/07 00:00:26;;;;;;;1999.90;999.90;;;14.10;99.90;;;;;;4932235;28;20199;-74
2022/05/07 00:02:52;;;;;;;1999.90;999.90;;;13.90;99.90;;;;;;4932269;28;20211;-74
2022/05/07 00:05:19;;;;;;;1999.90;999.90;;;13.90;99.90;;;;;;4932006;28;20181;-74
2022/05/07 00:07:45;;;;;;;1999.90;999.90;;;13.80;99.90;;;;;;4932157;29;20192;-74
2022/05/07 00:10:10;;;;;;;1999.90;999.90;;;13.70;99.90;;;;;;4932409;29;20473;-74
2022/05/07 00:12:36;;;;;;;1999.90;999.90;;;13.70;99.90;;;;;;4932256;28;20410;-74
2022/05/07 00:15:02;;;;;;;1999.90;999.90;;;13.60;99.90;;;;;;4931924;28;20213;-74
2022/05/07 00:20:12;;;;;;;1999.90;999.90;;;13.50;99.90;;;;;;4932077;29;20456;-74
2022/05/07 00:22:37;;;;;;;1999.90;999.90;;;13.50;99.90;;;;;;4931986;28;20795;-74
2022/05/07 00:25:03;;;;;;;1999.90;999.90;;;13.50;99.90;;;;;;4931847;28;20174;-74
2022/05/07 00:27:29;;;;;;;1999.90;999.90;;;13.40;99.90;;;;;;4932335;28;20205;-76
2022/05/07 00:29:54;;;;;;;1999.90;999.90;;;13.30;99.90;;;;;;4931681;28;20182;-75
2022/05/07 00:32:20;;;;;;;1999.90;999.90;;;13.30;99.90;;;;;;4931654;28;20179;-75
2022/05/07 00:34:46;;;;;;;1999.90;999.90;;;13.20;99.90;;;;;;4931353;28;20174;-76
2022/05/07 00:37:12;;;;;;;1999.90;999.90;;;13.10;99.90;;;;;;4931474;29;20189;-75
2022/05/07 00:39:37;;;;;;;1999.90;999.90;;;13.10;99.90;;;;;;4931604;28;20421;-75
2022/05/07 00:42:04;;;;;;;1999.90;999.90;;;13.10;99.90;;;;;;4931542;28;20170;-75
2022/05/07 00:44:30;;;;;;;1999.90;999.90;;;13.10;99.90;;;;;;4931221;29;20171;-75
2022/05/07 00:47:17;;;;;;;1999.90;999.90;;;13.10;99.90;;;;;;4931468;29;20994;-75
2022/05/07 00:49:45;;;;;;;1999.90;999.90;;;13.10;99.90;;;;;;4931468;29;20272;-76
2022/05/07 00:52:11;;;;;;;1999.90;999.90;;;12.90;99.90;;;;;;4931319;29;20537;-75
2022/05/07 00:54:37;;;;;;;1999.90;999.90;;;12.80;99.90;;;;;;4931139;29;20963;-75
2022/05/07 00:57:04;;;;;;;1999.90;999.90;;;12.80;99.90;;;;;;4931352;28;20434;-75
2022/05/07 00:59:30;;;;;;;1999.90;999.90;;;12.90;99.90;;;;;;4931393;29;20771;-75
2022/05/07 01:01:55;;;;;;;1999.90;999.90;;;12.90;99.90;;;;;;4931304;29;20434;-75
2022/05/07 01:04:21;;;;;;;1999.90;999.90;;;12.90;99.90;;;;;;4931166;28;20491;-74
2022/05/07 01:06:47;;;;;;;1999.90;999.90;;;12.90;99.90;;;;;;4931541;29;20684;-74
2022/05/07 01:09:12;;;;;;;1999.90;999.90;;;12.90;99.90;;;;;;4933778;28;20202;-74
2022/05/07 01:11:40;;;;;;;1999.90;999.90;;;13.00;99.90;;;;;;4934929;28;20167;-74
2022/05/07 01:14:06;;;;;;;1999.90;999.90;;;12.90;99.90;;;;;;4934577;29;20596;-74
2022/05/07 01:16:31;;;;;;;1999.90;999.90;;;12.80;99.90;;;;;;4934743;28;20543;-74
2022/05/07 01:18:57;;;;;;;1999.90;999.90;;;12.70;99.90;;;;;;4934954;28;20206;-74
2022/05/07 01:21:22;;;;;;;1999.90;999.90;;;12.60;99.90;;;;;;4934717;28;20204;-74
2022/05/07 01:23:48;;;;;;;1999.90;999.90;;;12.50;99.90;;;;;;4934831;28;20238;-74
2022/05/07 01:26:17;;;;;;;1999.90;999.90;;;12.50;99.90;;;;;;4934256;28;20670;-74
2022/05/07 01:28:43;;;;;;;1999.90;999.90;;;12.50;99.90;;;;;;4934374;29;20198;-74
2022/05/07 01:31:08;;;;;;;1999.90;999.90;;;12.40;99.90;;;;;;4934407;29;20419;-74
2022/05/07 01:33:34;;;;;;;1999.90;999.90;;;12.40;99.90;;;;;;4934866;28;20172;-74
2022/05/07 01:36:02;;;;;;;1999.90;999.90;;;12.40;99.90;;;;;;4934143;29;20268;-74
2022/05/07 01:38:29;;;;;;;1999.90;999.90;;;12.40;99.90;;;;;;4932816;28;20443;-74
2022/05/07 01:40:54;;;;;;;1999.90;999.90;;;12.40;99.90;;;;;;4934039;29;20410;-75
2022/05/07 01:43:20;;;;;;;1999.90;999.90;;;12.40;99.90;;;;;;4933993;28;20516;-74
2022/05/07 01:45:46;;;;;;;1999.90;999.90;;;12.40;99.90;;;;;;4933596;28;20182;-74
2022/05/07 01:48:11;;;;;;;1999.90;999.90;;;12.50;99.90;;;;;;4933895;28;20227;-74
2022/05/07 01:50:39;;;;;;;1999.90;999.90;;;12.50;99.90;;;;;;4933754;28;20208;-74
2022/05/07 01:53:12;;;;;;;1999.90;999.90;;;12.50;99.90;;;;;;4933804;29;20638;-74
2022/05/07 01:55:38;;;;;;;1999.90;999.90;;;12.50;99.90;;;;;;4933571;29;20418;-74
2022/05/07 01:58:04;;;;;;;1999.90;999.90;;;12.50;99.90;;;;;;4933790;28;20799;-74
2022/05/07 02:00:31;;;;;;;1999.90;999.90;;;12.50;99.90;;;;;;4933753;29;20866;-74
2022/05/07 02:02:58;;;;;;;1999.90;999.90;;;12.50;99.90;;;;;;4933789;29;20436;-74
2022/05/07 02:05:25;;;;;;;1999.90;999.90;;;12.50;99.90;;;;;;4933277;29;20475;-74
2022/05/07 02:07:51;;;;;;;1999.90;999.90;;;12.50;99.90;;;;;;4933523;29;20978;-74
2022/05/07 02:10:17;;;;;;;1999.90;999.90;;;12.40;99.90;;;;;;4933581;29;20404;-74
2022/05/07 02:12:42;;;;;;;1999.90;999.90;;;12.50;99.90;;;;;;4933557;28;20815;-74
2022/05/07 02:15:08;;;;;;;1999.90;999.90;;;12.50;99.90;;;;;;4933340;28;20168;-74
2022/05/07 02:17:34;;;;;;;1999.90;999.90;;;12.40;99.90;;;;;;4933347;29;20213;-74
2022/05/07 02:20:00;;;;;;;1999.90;999.90;;;12.20;99.90;;;;;;4932235;29;20969;-74
2022/05/07 02:22:25;;;;;;;1999.90;999.90;;;12.20;99.90;;;;;;4933436;28;20176;-74
2022/05/07 02:24:51;;;;;;;1999.90;999.90;;;12.20;99.90;;;;;;4933209;28;20280;-74
2022/05/07 02:27:17;;;;;;;1999.90;999.90;;;12.20;99.90;;;;;;4933208;29;20195;-74
2022/05/07 02:29:42;;;;;;;1999.90;999.90;;;12.10;99.90;;;;;;4932130;28;20461;-74
2022/05/07 02:32:09;;;;;;;1999.90;999.90;;;12.10;99.90;;;;;;4933279;28;20173;-74
2022/05/07 02:34:36;;;;;;;1999.90;999.90;;;12.10;99.90;;;;;;4932945;29;20225;-74
2022/05/07 02:37:04;;;;;;;1999.90;999.90;;;11.90;99.90;;;;;;4933178;29;20520;-74
2022/05/07 02:39:30;;;;;;;1999.90;999.90;;;11.90;99.90;;;;;;4933212;29;20771;-74
2022/05/07 02:44:40;;;;;;;1999.90;999.90;;;11.80;99.90;;;;;;4932884;29;20181;-74
2022/05/07 02:47:06;;;;;;;1999.90;999.90;;;11.90;99.90;;;;;;4932971;28;20828;-74
2022/05/07 02:49:32;;;;;;;1999.90;999.90;;;11.80;99.90;;;;;;4932928;28;20747;-74
2022/05/07 02:51:57;;;;;;;1999.90;999.90;;;11.80;99.90;;;;;;4932964;29;20169;-74
2022/05/07 02:54:23;;;;;;;1999.90;999.90;;;11.80;99.90;;;;;;4932642;28;20403;-74
2022/05/07 02:56:49;;;;;;;1999.90;999.90;;;11.80;99.90;;;;;;4932892;29;20272;-74
2022/05/07 02:59:14;;;;;;;1999.90;999.90;;;11.70;99.90;;;;;;4932873;28;20181;-74
2022/05/07 03:01:41;;;;;;;1999.90;999.90;;;11.60;99.90;;;;;;4932855;28;20199;-74
2022/05/07 03:04:08;;;;;;;1999.90;999.90;;;11.60;99.90;;;;;;4932689;29;20164;-74
2022/05/07 03:06:34;;;;;;;1999.90;999.90;;;11.50;99.90;;;;;;4932880;29;20432;-74
2022/05/07 03:09:00;;;;;;;1999.90;999.90;;;11.50;99.90;;;;;;4932910;29;20462;-74
2022/05/07 03:11:26;;;;;;;1999.90;999.90;;;11.50;99.90;;;;;;4932901;29;20422;-74
2022/05/07 03:13:52;;;;;;;1999.90;999.90;;;11.50;99.90;;;;;;4932901;29;20405;-74
2022/05/07 03:16:17;;;;;;;1999.90;999.90;;;11.60;99.90;;;;;;4932418;29;20228;-74
2022/05/07 03:18:43;;;;;;;1999.90;999.90;;;11.60;99.90;;;;;;4932855;28;21005;-74
2022/05/07 03:21:09;;;;;;;1999.90;999.90;;;11.60;99.90;;;;;;4932551;28;20173;-74
2022/05/07 03:23:35;;;;;;;1999.90;999.90;;;11.60;99.90;;;;;;4932545;29;20653;-74
2022/05/07 03:26:00;;;;;;;1999.90;999.90;;;11.60;99.90;;;;;;4932230;29;20494;-74
2022/05/07 03:28:26;;;;;;;1999.90;999.90;;;11.70;99.90;;;;;;4932382;28;20203;-74
2022/05/07 03:30:52;;;;;;;1999.90;999.90;;;11.70;99.90;;;;;;4931966;28;20174;-74
2022/05/07 03:33:17;;;;;;;1999.90;999.90;;;11.60;99.90;;;;;;4932445;28;20281;-74
2022/05/07 03:35:47;;;;;;;1999.90;999.90;;;11.70;99.90;;;;;;4932038;29;20649;-74
2022/05/07 03:38:12;;;;;;;1999.90;999.90;;;11.60;99.90;;;;;;4932324;29;20730;-74
2022/05/07 03:40:38;;;;;;;1999.90;999.90;;;11.60;99.90;;;;;;4932328;28;20492;-74
2022/05/07 03:43:05;;;;;;;1999.90;999.90;;;11.60;99.90;;;;;;4932271;29;20168;-74
2022/05/07 03:45:31;;;;;;;1999.90;999.90;;;11.60;99.90;;;;;;4931849;29;20424;-74
2022/05/07 03:47:57;;;;;;;1999.90;999.90;;;11.60;99.90;;;;;;4932308;29;21003;-74
2022/05/07 03:50:23;;;;;;;1999.90;999.90;;;11.60;99.90;;;;;;4932426;28;20417;-74
2022/05/07 03:55:44;;;;;;;1999.90;999.90;;;11.50;99.90;;;;;;4954173;28;20207;-74
2022/05/07 03:58:11;;;;;;;1999.90;999.90;;;11.60;99.90;;;;;;4932281;29;20440;-74
2022/05/07 04:00:37;;;;;;;1999.90;999.90;;;11.50;99.90;;;;;;4932265;29;20415;-74
2022/05/07 04:03:04;;;;;;;1999.90;999.90;;;11.50;99.90;;;;;;4932284;29;20421;-74
2022/05/07 04:05:30;;;;;;;1999.90;999.90;;;11.50;99.90;;;;;;4931871;29;20880;-74
2022/05/07 04:07:56;;;;;;;1999.90;999.90;;;11.50;99.90;;;;;;4930790;28;20553;-75
2022/05/07 04:10:21;;;;;;;1999.90;999.90;;;11.50;99.90;;;;;;4931983;28;20778;-76
2022/05/07 04:12:50;;;;;;;1999.90;999.90;;;11.50;99.90;;;;;;4931954;29;20179;-76
2022/05/07 04:15:20;;;;;;;1999.90;999.90;;;11.40;99.90;;;;;;4931702;29;20172;-75
2022/05/07 04:17:45;;;;;;;1999.90;999.90;;;11.40;99.90;;;;;;4931769;29;20452;-75
2022/05/07 04:20:11;;;;;;;1999.90;999.90;;;11.50;99.90;;;;;;4931839;28;20422;-75
2022/05/07 04:22:37;;;;;;;1999.90;999.90;;;11.40;99.90;;;;;;4931809;28;20809;-75
2022/05/07 04:25:04;;;;;;;1999.90;999.90;;;11.50;99.90;;;;;;4931452;29;20168;-75
2022/05/07 04:27:30;;;;;;;1999.90;999.90;;;11.50;99.90;;;;;;4931650;29;20530;-75
2022/05/07 04:29:57;;;;;;;1999.90;999.90;;;11.50;99.90;;;;;;4931716;29;20487;-76
2022/05/07 04:32:23;;;;;;;1999.90;999.90;;;11.60;99.90;;;;;;4931709;29;20161;-75
2022/05/07 04:34:49;;;;;;;1999.90;999.90;;;11.60;99.90;;;;;;4931379;29;20467;-75
2022/05/07 04:37:15;;;;;;;1999.90;999.90;;;11.60;99.90;;;;;;4931585;28;20435;-75
2022/05/07 04:39:40;;;;;;;1999.90;999.90;;;11.70;99.90;;;;;;4931678;28;20181;-75
2022/05/07 04:42:06;;;;;;;1999.90;999.90;;;11.70;99.90;;;;;;4931665;28;20259;-76
2022/05/07 04:44:32;;;;;;;1999.90;999.90;;;11.60;99.90;;;;;;4934114;29;20741;-76
2022/05/07 04:46:57;;;;;;;1999.90;999.90;;;11.60;99.90;;;;;;4934770;28;20296;-73
2022/05/07 04:49:24;;;;;;;1999.90;999.90;;;11.60;99.90;;;;;;4934779;28;20261;-75
2022/05/07 04:51:50;;;;;;;1999.90;999.90;;;11.60;99.90;;;;;;4934787;29;20180;-75
2022/05/07 04:54:20;;;;;;;1999.90;999.90;;;11.70;99.90;;;;;;4934439;29;20486;-75
2022/05/07 04:56:49;;;;;;;1999.90;999.90;;;11.80;99.90;;;;;;4934772;29;20451;-75
2022/05/07 04:59:16;;;;;;;1999.90;999.90;;;11.90;99.90;;;;;;4934707;29;20412;-75
2022/05/07 05:01:42;;;;;;;1999.90;999.90;;;11.90;99.90;;;;;;4934752;29;20506;-75
2022/05/07 05:04:09;;;;;;;1999.90;999.90;;;12.00;99.90;;;;;;4934445;29;20917;-75
2022/05/07 05:06:35;;;;;;;1999.90;999.90;;;12.10;99.90;;;;;;4934481;29;20441;-75
2022/05/07 05:09:00;;;;;;;1999.90;999.90;;;12.20;99.90;;;;;;4934551;29;20467;-75
2022/05/07 05:11:26;;;;;;;1999.90;999.90;;;12.30;99.90;;;;;;4934529;29;20525;-75
2022/05/07 05:13:52;;;;;;;1999.90;999.90;;;12.40;99.90;;;;;;4934412;28;20416;-74
2022/05/07 05:16:17;;;;;;;1999.90;999.90;;;12.40;99.90;;;;;;4933965;29;20237;-74
2022/05/07 05:18:44;;;;;;;1999.90;999.90;;;12.40;99.90;;;;;;4934586;28;20183;-74
2022/05/07 05:21:09;;;;;;;1999.90;999.90;;;12.60;99.90;;;;;;4934295;29;20177;-74
2022/05/07 05:23:35;;;;;;;1999.90;999.90;;;12.70;99.90;;;;;;4934316;29;20507;-74
2022/05/07 05:26:01;;;;;;;1999.90;999.90;;;12.80;99.90;;;;;;4934028;28;20198;-74
2022/05/07 05:28:26;;;;;;;1999.90;999.90;;;12.90;99.90;;;;;;4934697;28;20238;-74
2022/05/07 05:30:52;;;;;;;1999.90;999.90;;;12.90;99.90;;;;;;4934311;28;20173;-74
2022/05/07 05:33:21;;;;;;;1999.90;999.90;;;13.10;99.90;;;;;;4934380;29;20544;-75
2022/05/07 05:35:47;;;;;;;1999.90;999.90;;;13.20;99.90;;;;;;4934008;28;20225;-74
2022/05/07 05:38:15;;;;;;;1999.90;999.90;;;13.30;99.90;;;;;;4934356;29;20416;-74
2022/05/07 05:40:41;;;;;;;1999.90;999.90;;;13.40;99.90;;;;;;4934335;29;20418;-74
2022/05/07 05:43:07;;;;;;;1999.90;999.90;;;13.60;99.90;;;;;;4934336;29;20450;-74
2022/05/07 05:45:33;;;;;;;1999.90;999.90;;;13.70;99.90;;;;;;4933910;29;20830;-74
2022/05/07 05:48:01;;;;;;;1999.90;999.90;;;13.80;99.90;;;;;;4934121;29;20249;-74
2022/05/07 05:50:30;;;;;;;1999.90;999.90;;;14.00;99.90;;;;;;4934135;29;20193;-74
2022/05/07 05:52:56;;;;;;;1999.90;999.90;;;14.10;99.90;;;;;;4934030;29;20782;-74
2022/05/07 05:55:22;;;;;;;1999.90;999.90;;;14.20;99.90;;;;;;4933435;29;20411;-74
2022/05/07 05:57:49;;;;;;;1999.90;999.90;;;14.30;99.90;;;;;;4933926;28;20439;-75
2022/05/07 06:00:15;;;;;;;1999.90;999.90;;;14.40;99.90;;;;;;4933736;29;20298;-74
2022/05/07 06:02:44;;;;;;;1999.90;999.90;;;14.50;99.90;;;;;;4933705;29;20409;-75
2022/05/07 06:05:11;;;;;;;1999.90;999.90;;;14.50;99.90;;;;;;4933518;29;20437;-74
2022/05/07 06:07:37;;;;;;;1999.90;999.90;;;14.50;99.90;;;;;;4933588;29;20429;-74
2022/05/07 06:10:03;;;;;;;1999.90;999.90;;;14.60;99.90;;;;;;4933806;28;20831;-74
2022/05/07 06:12:29;;;;;;;1999.90;999.90;;;14.60;99.90;;;;;;4933841;29;20193;-74
2022/05/07 06:14:55;;;;;;;1999.90;999.90;;;14.80;99.90;;;;;;4933562;28;20431;-74
2022/05/07 06:17:21;;;;;;;1999.90;999.90;;;14.80;99.90;;;;;;4933513;29;20216;-74
2022/05/07 06:19:47;;;;;;;1999.90;999.90;;;14.90;99.90;;;;;;4933739;29;20409;-74
2022/05/07 06:22:12;;;;;;;1999.90;999.90;;;14.90;99.90;;;;;;4933782;28;20176;-75
2022/05/07 06:27:28;;;;;;;1999.90;999.90;;;15.10;99.90;;;;;;4933272;29;20271;-75
2022/05/07 06:29:57;;;;;;;1999.90;999.90;;;15.20;99.90;;;;;;4933449;28;20773;-75
2022/05/07 06:32:23;;;;;;;1999.90;999.90;;;15.40;99.90;;;;;;4933199;29;20469;-75
2022/05/07 06:34:49;;;;;;;1999.90;999.90;;;15.50;99.90;;;;;;4933133;29;20432;-75
2022/05/07 06:37:15;;;;;;;1999.90;999.90;;;15.60;99.90;;;;;;4932154;28;20951;-75
2022/05/07 06:39:41;;;;;;;1999.90;999.90;;;15.70;99.90;;;;;;4933405;28;20191;-75
2022/05/07 06:42:07;;;;;;;1999.90;999.90;;;15.70;99.90;;;;;;4933398;29;20182;-74
2022/05/07 06:44:33;;;;;;;1999.90;999.90;;;15.80;99.90;;;;;;4932719;29;20410;-74
2022/05/07 06:46:58;;;;;;;1999.90;999.90;;;16.00;99.90;;;;;;4933104;28;20493;-74
2022/05/07 06:49:24;;;;;;;1999.90;999.90;;;16.10;99.90;;;;;;4933011;28;20217;-75
2022/05/07 06:51:51;;;;;;;1999.90;999.90;;;16.10;99.90;;;;;;4933082;28;20176;-74
2022/05/07 06:54:17;;;;;;;1999.90;999.90;;;16.20;99.90;;;;;;4932666;29;20232;-75
2022/05/07 06:56:42;;;;;;;1999.90;999.90;;;16.30;99.90;;;;;;4932830;29;20514;-75
2022/05/07 06:59:10;;;;;;;1999.90;999.90;;;16.50;99.90;;;;;;4932854;29;20833;-74
2022/05/07 07:01:36;;;;;;;1999.90;999.90;;;16.60;99.90;;;;;;4932961;29;20171;-75
2022/05/07 07:04:01;;;;;;;1999.90;999.90;;;16.70;99.90;;;;;;4932548;29;20470;-75
2022/05/07 07:06:28;;;;;;;1999.90;999.90;;;16.80;99.90;;;;;;4932052;29;20460;-75
2022/05/07 07:08:54;;;;;;;1999.90;999.90;;;16.90;99.90;;;;;;4932686;29;20194;-75
2022/05/07 07:11:23;;;;;;;1999.90;999.90;;;17.00;99.90;;;;;;4932809;29;20470;-74
2022/05/07 07:13:49;;;;;;;1999.90;999.90;;;17.10;99.90;;;;;;4932649;28;20864;-75
2022/05/07 07:16:15;;;;;;;1999.90;999.90;;;17.10;99.90;;;;;;4932177;29;20829;-75
2022/05/07 07:18:41;;;;;;;1999.90;999.90;;;17.10;99.90;;;;;;4932640;29;20447;-74
2022/05/07 07:21:06;;;;;;;1999.90;999.90;;;17.20;99.90;;;;;;4931368;28;20430;-75
2022/05/07 07:23:32;;;;;;;1999.90;999.90;;;17.30;99.90;;;;;;4932592;28;20257;-75
2022/05/07 07:25:58;;;;;;;1999.90;999.90;;;17.30;99.90;;;;;;4932094;28;20259;-75
2022/05/07 07:28:24;;;;;;;1999.90;999.90;;;17.50;99.90;;;;;;4932373;28;20212;-74
2022/05/07 07:30:49;;;;;;;1999.90;999.90;;;17.50;99.90;;;;;;4932470;29;20180;-75
2022/05/07 07:33:15;;;;;;;1999.90;999.90;;;17.50;99.90;;;;;;4932505;28;20504;-74
2022/05/07 07:35:44;;;;;;;1999.90;999.90;;;17.60;99.90;;;;;;4932025;28;20176;-75
2022/05/07 07:38:11;;;;;;;1999.90;999.90;;;17.80;99.90;;;;;;4932446;28;20266;-76
2022/05/07 07:40:38;;;;;;;1999.90;999.90;;;17.90;99.90;;;;;;4932330;29;20832;-77
2022/05/07 07:43:04;;;;;;;1999.90;999.90;;;18.10;99.90;;;;;;4932310;29;20415;-77
2022/05/07 07:48:14;;;;;;;1999.90;999.90;;;18.40;99.90;;;;;;4932401;29;20509;-76
2022/05/07 07:50:40;;;;;;;1999.90;999.90;;;18.60;99.90;;;;;;4932197;29;20418;-77
2022/05/07 07:53:10;;;;;;;1999.90;999.90;;;18.70;99.90;;;;;;4932257;29;20172;-76
2022/05/07 07:55:37;;;;;;;1999.90;999.90;;;18.90;99.90;;;;;;4931664;28;20434;-76
2022/05/07 07:58:05;;;;;;;1999.90;999.90;;;19.10;99.90;;;;;;4931815;29;20432;-75
2022/05/07 08:00:32;;;;;;;1999.90;999.90;;;19.40;99.90;;;;;;4932075;29;20429;-75
2022/05/07 08:03:00;;;;;;;1999.90;999.90;;;19.60;99.90;;;;;;4932143;29;20429;-75
2022/05/07 08:05:28;;;;;;;1999.90;999.90;;;19.70;99.90;;;;;;4931757;29;20411;-75
2022/05/07 08:13:23;;;;;;;1999.90;999.90;;;19.80;99.90;;;;;;4931928;29;20413;-75
2022/05/07 08:15:49;;;;;;;1999.90;999.90;;;20.10;99.90;;;;;;4931346;28;20419;-75
2022/05/07 08:18:16;;;;;;;1999.90;999.90;;;20.20;99.90;;;;;;4934442;29;20445;-75
2022/05/07 08:20:42;;;;;;;1999.90;999.90;;;20.30;99.90;;;;;;4935215;29;20490;-75
2022/05/07 08:23:09;;;;;;;1999.90;999.90;;;20.40;99.90;;;;;;4935164;29;20404;-75
2022/05/07 08:25:35;;;;;;;1999.90;999.90;;;20.50;99.90;;;;;;4934849;29;20402;-75
2022/05/07 08:28:01;;;;;;;1999.90;999.90;;;20.70;99.90;;;;;;4934960;29;20503;-75
2022/05/07 08:30:26;;;;;;;1999.90;999.90;;;20.70;99.90;;;;;;4935072;28;20451;-75
2022/05/07 08:32:52;;;;;;;1999.90;999.90;;;20.50;99.90;;;;;;4934927;28;20164;-75
2022/05/07 08:35:18;;;;;;;1999.90;999.90;;;20.50;99.90;;;;;;4934768;29;20164;-74
2022/05/07 08:37:44;;;;;;;1999.90;999.90;;;20.60;99.90;;;;;;4935351;29;20616;-75
2022/05/07 08:40:13;;;;;;;1999.90;999.90;;;20.80;99.90;;;;;;4934905;29;20921;-75
2022/05/07 08:42:39;;;;;;;1999.90;999.90;;;21.10;99.90;;;;;;4932048;29;20520;-75
2022/05/07 08:45:05;;;;;;;1999.90;999.90;;;21.20;99.90;;;;;;4933741;29;20937;-75
2022/05/07 08:47:32;;;;;;;1999.90;999.90;;;21.40;99.90;;;;;;4936567;29;20434;-75
2022/05/07 08:49:57;;;;;;;1999.90;999.90;;;21.50;99.90;;;;;;4935441;28;20416;-75
2022/05/07 08:52:23;;;;;;;1999.90;999.90;;;21.50;99.90;;;;;;4936056;28;20423;-75
2022/05/07 08:54:49;;;;;;;1999.90;999.90;;;21.50;99.90;;;;;;4936038;28;20264;-75
2022/05/07 08:57:15;;;;;;;1999.90;999.90;;;21.60;99.90;;;;;;4935503;28;20220;-75
2022/05/07 08:59:42;;;;;;;1999.90;999.90;;;21.70;99.90;;;;;;4935241;28;20635;-75
2022/05/07 09:02:08;;;;;;;1999.90;999.90;;;21.70;99.90;;;;;;4936069;29;20422;-75
2022/05/07 09:04:38;;;;;;;1999.90;999.90;;;21.80;99.90;;;;;;4934826;29;20481;-75
2022/05/07 09:07:14;;;;;;;1999.90;999.90;;;21.90;99.90;;;;;;4949056;28;20832;-73
2022/05/07 09:09:47;;;;;;;1999.90;999.90;;;21.90;99.90;;;;;;4952877;28;21036;-73
2022/05/07 09:12:22;;;;;;;1999.90;999.90;;;22.00;99.90;;;;;;4952572;28;20530;-73
2022/05/07 09:14:47;;;;;;;1999.90;999.90;;;22.20;99.90;;;;;;4952645;28;20407;-73
2022/05/07 09:17:13;;;;;;;1999.90;999.90;;;22.20;99.90;;;;;;4952721;28;20799;-73
2022/05/07 09:19:38;;;;;;;1999.90;999.90;;;22.40;99.90;;;;;;4952884;28;20182;-73
2022/05/07 09:22:09;;;;;;;1999.90;999.90;;;22.60;99.90;;;;;;4952986;28;20192;-73
2022/05/07 09:24:35;;;;;;;1999.90;999.90;;;22.70;99.90;;;;;;4952830;28;20268;-75
2022/05/07 09:27:03;;;;;;;1999.90;999.90;;;22.70;99.90;;;;;;4952453;28;20815;-75
2022/05/07 09:29:30;;;;;;;1999.90;999.90;;;22.70;99.90;;;;;;4951783;28;20544;-76
2022/05/07 09:32:16;;;;;;;1999.90;999.90;;;22.80;97.50;;;;;;4951760;28;20422;-75
2022/05/07 09:37:36;;;;;;;1999.90;999.90;;;23.00;93.90;;;;;;4952624;29;20426;-75
2022/05/07 09:40:10;;;;;;;1999.90;999.90;;;23.10;92.80;;;;;;4952515;28;20444;-76
2022/05/07 09:42:35;;;;;;;1999.90;999.90;;;23.20;92.10;;;;;;4952158;28;20428;-74
2022/05/07 09:45:02;;;;;;;1999.90;999.90;;;23.30;92.00;;;;;;4952178;28;20423;-73
2022/05/07 09:47:28;;;;;;;1999.90;999.90;;;23.30;89.10;;;;;;4952400;28;20187;-73
2022/05/07 09:58:31;;;;;;;1999.90;999.90;;;23.40;78.60;;;;;;4991680;28;20401;-72
2022/05/07 10:01:20;;;;;;;1999.90;999.90;;;23.40;74.00;;;;;;4991423;28;20420;-72
2022/05/07 10:04:06;;;;;;;1999.90;999.90;;;23.40;77.90;;;;;;4966462;28;20219;-73
2022/05/07 10:06:50;;;;;;;1999.90;999.90;;;23.40;75.10;;;;;;4951991;28;20428;-72
2022/05/07 10:09:31;;;;;;;1999.90;999.90;;;23.50;78.20;;;;;;4952212;28;20462;-73
2022/05/07 10:11:58;;;;;;;1999.90;999.90;;;23.50;73.40;;;;;;4951728;28;20406;-73
2022/05/07 10:14:28;;;;;;;1999.90;999.90;;;23.50;73.90;;;;;;4951818;28;20930;-73
2022/05/07 10:16:57;;;;;;;1999.90;999.90;;;23.70;70.30;;;;;;4951728;28;20963;-73
2022/05/07 10:19:36;;;;;;;1999.90;999.90;;;23.70;71.80;;;;;;4951452;28;20388;-74
2022/05/07 10:22:02;;;;;;;1999.90;999.90;;;23.70;65.00;;;;;;4951914;28;20407;-73
2022/05/07 10:24:28;;;;;;;1999.90;999.90;;;23.60;70.20;;;;;;4951564;28;20429;-73
2022/05/07 10:26:54;;;;;;;1999.90;999.90;;;23.40;60.60;;;;;;4951245;28;20428;-73
2022/05/07 10:29:23;;;;;;;1999.90;999.90;;;23.60;65.80;;;;;;4951645;28;20700;-73
2022/05/07 10:31:50;;;;;;;1999.90;999.90;;;23.70;70.60;;;;;;4951876;28;20389;-73
2022/05/07 10:34:25;;;;;;;1999.90;999.90;;;23.70;68.10;;;;;;4951169;28;20429;-73
2022/05/07 10:37:07;;;;;;;1999.90;999.90;;;23.90;65.20;;;;;;4951468;29;20448;-73
2022/05/07 10:39:34;;;;;;;1999.90;999.90;;;24.20;63.50;;;;;;4952028;28;20424;-73
2022/05/07 10:42:02;;;;;;;1999.90;999.90;;;24.40;60.90;;;;;;4950495;28;20568;-73
2022/05/07 10:44:33;;;;;;;1999.90;999.90;;;24.40;57.70;;;;;;4951849;28;20418;-73
2022/05/07 10:47:18;;;;;;;1999.90;999.90;;;24.50;58.80;;;;;;4951985;28;20409;-73
2022/05/07 10:50:06;;;;;;;1999.90;999.90;;;24.60;58.80;;;;;;4951668;28;20807;-74
2022/05/07 10:52:35;;;;;;;1999.90;999.90;;;24.70;62.10;;;;;;4952147;28;20386;-73
2022/05/07 10:55:05;;;;;;;1999.90;999.90;;;25.00;64.60;;;;;;4951580;28;20381;-73
2022/05/07 10:57:42;;;;;;;1999.90;999.90;;;25.20;58.70;;;;;;4951945;28;20463;-73
2022/05/07 11:00:14;;;;;;;1999.90;999.90;;;25.40;59.40;;;;;;4952017;28;20399;-73
2022/05/07 11:02:40;;;;;;;1999.90;999.90;;;25.70;57.20;;;;;;4951578;28;20750;-73
2022/05/07 11:05:06;;;;;;;1999.90;999.90;;;25.90;54.70;;;;;;4951756;28;20473;-73
2022/05/07 11:07:32;;;;;;;1999.90;999.90;;;26.00;55.10;;;;;;4951763;28;20430;-73
2022/05/07 11:09:58;;;;;;;1999.90;999.90;;;25.90;52.60;;;;;;4951489;28;20415;-73
2022/05/07 11:12:26;;;;;;;1999.90;999.90;;;25.80;49.40;;;;;;4951558;28;20174;-73
2022/05/07 11:14:52;;;;;;;1999.90;999.90;;;25.20;52.30;;;;;;4951809;28;20953;-73
2022/05/07 11:17:32;;;;;;;1999.90;999.90;;;25.00;55.90;;;;;;4949959;28;20462;-73
2022/05/07 11:19:58;;;;;;;1999.90;999.90;;;24.90;58.40;;;;;;4952109;28;20963;-73
2022/05/07 11:22:29;;;;;;;1999.90;999.90;;;25.00;58.70;;;;;;4951854;29;20374;-73
2022/05/07 11:24:57;;;;;;;1999.90;999.90;;;24.90;58.20;;;;;;4951740;28;20268;-73
2022/05/07 11:27:25;;;;;;;1999.90;999.90;;;25.10;59.30;;;;;;4951947;28;20764;-73
2022/05/07 11:29:53;;;;;;;1999.90;999.90;;;25.30;58.80;;;;;;4951830;28;20544;-73
2022/05/07 11:32:19;;;;;;;1999.90;999.90;;;25.40;56.50;;;;;;4951372;28;21162;-73
2022/05/07 11:34:44;;;;;;;1999.90;999.90;;;25.40;58.10;;;;;;4951688;28;20425;-73
2022/05/07 11:37:11;;;;;;;1999.90;999.90;;;25.70;58.70;;;;;;4951549;28;20790;-73
2022/05/07 11:39:49;;;;;;;1999.90;999.90;;;25.90;56.30;;;;;;4951419;28;20233;-73
2022/05/07 11:42:34;;;;;;;1999.90;999.90;;;26.00;55.70;;;;;;4951317;28;20982;-73
2022/05/07 11:47:53;;;;;;;1999.90;999.90;;;25.60;55.80;;;;;;4951210;29;20400;-74
2022/05/07 11:50:24;;;;;;;1999.90;999.90;;;25.30;58.60;;;;;;4951398;28;20406;-73
2022/05/07 11:52:51;;;;;;;1999.90;999.90;;;24.50;63.40;;;;;;4951138;28;20406;-74
2022/05/07 11:55:22;;;;;;;1999.90;999.90;;;24.00;70.30;;;;;;4950933;28;20384;-74
2022/05/07 11:57:48;;;;;;;1999.90;999.90;;;23.70;74.00;;;;;;4951456;28;20941;-74
2022/05/07 12:00:22;;;;;;;1999.90;999.90;;;23.60;66.30;;;;;;4953818;28;20402;-74
2022/05/07 12:02:53;;;;;;;1999.90;999.90;;;23.40;76.80;;;;;;4949017;28;20184;-76
2022/05/07 12:05:19;;;;;;;1999.90;999.90;;;23.20;80.10;;;;;;4950098;28;20440;-78
2022/05/07 12:07:49;;;;;;;1999.90;999.90;;;22.70;79.90;;;;;;4935451;28;20442;-76
2022/05/07 12:10:17;;;;;;;1999.90;999.90;;;22.50;77.80;;;;;;4931859;29;20409;-76
2022/05/07 12:12:43;;;;;;;1999.90;999.90;;;22.40;77.10;;;;;;4932313;29;20492;-76
2022/05/07 12:15:09;;;;;;;1999.90;999.90;;;22.60;82.10;;;;;;4932882;29;20409;-75
2022/05/07 12:17:54;;;;;;;1999.90;999.90;;;22.70;89.50;;;;;;4963499;22;20492;-76
2022/05/07 12:20:22;;;;;;;1999.90;999.90;;;23.00;84.10;;;;;;4969765;28;20935;-74
2022/05/07 12:31:02;;;;;;;1999.90;999.90;;;;;;;;;;4928532;28;20936;-70
2022/05/07 12:33:28;;;;;;;1999.90;999.90;;;;;;;;;;4926951;28;20628;-71
2022/05/07 12:35:54;;;;;;;1999.90;999.90;;;;;;;;;;4926371;28;20923;-71
2022/05/07 12:38:20;;;;;;;1999.90;999.90;;;;;;;;;;4927203;28;20398;-71
2022/05/07 12:40:46;;;;;;;1999.90;999.90;;;;;;;;;;4926573;28;20925;-71
2022/05/07 12:43:12;;;;;;;1999.90;999.90;;;;;;;;;;4926832;28;20398;-70